Accueil
METAR-TAF:

METAR-TAF

Aéroports :

Bagdad, Irak

Aéroport international de Bagdad

latitude: 33-15-45N, longitude: 44-14-04E, altitude: 35 m

Observation

Le bulletin a été fait il y a 39 minutes, à 03:00 UTC
Vent 4 kt de ouest/nord-ouest
Température 21°C
Humidité 30%
Pression 1010 hPa
Visibilité 10 km ou plus
pas de nuages en-dessous de 1500 mètres et pas de cumulonimbus.

METAR: ORBI 260300Z 30004KT CAVOK 21/03 Q1010 NOSIG

Heure: 06:39 (03:39 UTC)

Prévision

Le bulletin a été fait il y a 4 heures et 39 minutes, à 23:00 UTC
Prévision valable du 26 à 00 UTC au 26 à 24 UTC
Vent 6 kt de nord-est
Visibilité 10 km ou plus
pas de nuages en-dessous de 1500 mètres et pas de cumulonimbus.

TAF: ORBI 252300Z 2600/2624 04006KT CAVOK

Observations et prévisions météorologiques de plus de 4000 aéroports (messages METAR et TAF).

Les stations disponibles sont représentées par des disques jaunes et rouges sur la carte.

Passer la souris dessus pour voir le nom de la station.

Cliquer dessus pour voir les observations et prévisions météorologiques.

Pour changer de carte: cliquez sur les boutons verts avec une croix noire pour zoomer, sur le bouton vert avec un tiret pour effectuer un zoom arrière, ou sur les flèches vertes pour les cartes adjacentes.


METAR-TAF: